Time;durP1;ratioP1;P1;durP2;ratioP2;P2;SDS_P1;SDS_P2;PMS_P1;PMS_P2;Temp;Humidity;BMP_temperature;BMP_pressure;BME280_temperature;BME280_humidity;BME280_pressure;Samples;Min_cycle;Max_cycle;Signal;HPM_P1;HPM_P2
2023/03/12 08:06:41;;;;;;;;;;;;;;;1.17;100.00;98641.78;5126115;27;20328;-79
2023/03/12 08:09:07;;;;;;;;;;;;;;;1.36;100.00;98645.50;5122139;27;19984;-76
2023/03/12 08:11:37;;;;;;;;;;;;;;;1.46;100.00;98645.50;5121861;27;19934;-78
2023/03/12 08:45:56;;;;;;;;;;;;;;;2.33;100.00;98659.84;5096998;27;1971237;-79
2023/03/12 08:48:26;;;;;;;;;;;;;;;2.31;100.00;98657.31;5166237;27;19927;-79
2023/03/12 08:51:17;;;;;;;;;;;;;;;2.64;100.00;98658.59;5106861;27;20250;-79
2023/03/12 08:55:57;;;;;;;;;;;;;;;2.64;100.00;98655.94;5107961;27;20371;-79
2023/03/12 08:58:24;;;;;;;;;;;;;;;2.66;100.00;98658.47;5107265;28;20298;-79
2023/03/12 09:00:51;;;;;;;;;;;;;;;2.64;100.00;98650.56;5103921;28;19928;-79
2023/03/12 09:03:17;;;;;;;;;;;;;;;2.71;100.00;98650.84;5107946;28;19923;-80
2023/03/12 09:05:44;;;;;;;;;;;;;;;2.56;100.00;98650.47;5107302;28;19964;-79
2023/03/12 09:08:11;;;;;;;;;;;;;;;2.53;100.00;98658.81;5108942;28;20439;-80
2023/03/12 09:10:37;;;;;;;;;;;;;;;2.54;100.00;98644.38;5109013;28;19931;-80
2023/03/12 09:14:44;;;;;;;;;;;;;;;3.04;100.00;98639.66;5124050;27;19956;-79
2023/03/12 09:17:10;;;;;;;;;;;;;;;3.14;100.00;98643.97;5116202;27;19928;-79
2023/03/12 09:19:36;;;;;;;;;;;;;;;3.26;100.00;98643.78;5120085;28;20297;-79
2023/03/12 09:22:03;;;;;;;;;;;;;;;3.43;100.00;98634.03;5118795;27;20424;-80
2023/03/12 09:24:29;;;;;;;;;;;;;;;3.33;100.00;98636.81;5108772;28;19928;-79
2023/03/12 09:26:56;;;;;;;;;;;;;;;3.30;100.00;98643.31;5108609;28;20011;-80
2023/03/12 09:29:23;;;;;;;;;;;;;;;3.35;100.00;98640.16;5118681;28;20354;-80
2023/03/12 09:31:51;;;;;;;;;;;;;;;3.36;100.00;98648.06;5127527;28;19924;-79
2023/03/12 09:36:14;;;;;;;;;;;;;;;3.51;100.00;98648.41;5108528;27;19938;-80
2023/03/12 09:38:40;;;;;;;;;;;;;;;3.45;100.00;98657.06;5109047;28;20393;-80
2023/03/12 09:44:00;;;;;;;;;;;;;;;3.47;100.00;98667.66;5122105;27;19946;-79
2023/03/12 09:46:29;;;;;;;;;;;;;;;3.50;100.00;98662.00;5099869;28;19929;-80
2023/03/12 09:48:57;;;;;;;;;;;;;;;3.49;100.00;98665.66;5108844;28;19924;-79
2023/03/12 09:51:27;;;;;;;;;;;;;;;3.65;100.00;98656.94;5108661;28;20405;-79
2023/03/12 09:53:55;;;;;;;;;;;;;;;3.83;100.00;98647.00;5108342;28;19924;-79
2023/03/12 09:56:23;;;;;;;;;;;;;;;3.74;100.00;98647.13;5109091;28;19924;-81
2023/03/12 09:58:53;;;;;;;;;;;;;;;4.01;100.00;98641.63;5106598;28;19978;-81
2023/03/12 10:01:28;;;;;;;;;;;;;;;4.17;100.00;98651.69;5096913;28;20023;-80
2023/03/12 10:04:15;;;;;;;;;;;;;;;4.31;100.00;98644.88;5096804;28;19924;-79
2023/03/12 10:06:45;;;;;;;;;;;;;;;4.20;100.00;98655.88;5097509;28;20402;-79
2023/03/12 10:09:19;;;;;;;;;;;;;;;4.20;100.00;98653.19;5110095;28;20287;-79
2023/03/12 10:11:50;;;;;;;;;;;;;;;4.33;100.00;98661.69;5109635;28;20286;-79
2023/03/12 10:14:29;;;;;;;;;;;;;;;4.36;100.00;98665.94;5118705;28;19927;-79
2023/03/12 10:17:03;;;;;;;;;;;;;;;4.38;100.00;98659.41;5131062;27;19924;-79
2023/03/12 10:19:37;;;;;;;;;;;;;;;4.48;100.00;98661.13;5130892;27;19924;-79
2023/03/12 10:22:07;;;;;;;;;;;;;;;4.32;100.00;98659.16;5111794;27;20397;-79
2023/03/12 10:24:40;;;;;;;;;;;;;;;4.31;100.00;98661.03;5110213;28;19931;-80
2023/03/12 10:27:11;;;;;;;;;;;;;;;4.29;100.00;98667.56;5105880;28;19924;-79
2023/03/12 10:29:39;;;;;;;;;;;;;;;4.73;100.00;98664.84;5095636;28;19932;-79
2023/03/12 10:32:11;;;;;;;;;;;;;;;4.51;100.00;98669.72;5089091;28;19989;-80
2023/03/12 10:34:40;;;;;;;;;;;;;;;4.56;100.00;98672.81;5088969;28;19924;-79
2023/03/12 10:37:12;;;;;;;;;;;;;;;4.70;100.00;98674.06;5089917;28;19932;-80
2023/03/12 10:39:39;;;;;;;;;;;;;;;4.78;100.00;98676.78;5108169;28;19935;-80
2023/03/12 10:42:12;;;;;;;;;;;;;;;4.94;100.00;98673.34;5103164;28;19924;-80
2023/03/12 10:44:38;;;;;;;;;;;;;;;4.82;100.00;98679.16;5132288;27;19935;-80
2023/03/12 10:47:13;;;;;;;;;;;;;;;4.92;100.00;98678.06;5126482;28;19924;-79
2023/03/12 10:49:39;;;;;;;;;;;;;;;5.04;100.00;98686.69;5126627;28;19927;-80
2023/03/12 10:52:07;;;;;;;;;;;;;;;5.15;100.00;98693.66;5127344;28;19934;-80
2023/03/12 10:54:35;;;;;;;;;;;;;;;5.22;100.00;98694.69;5118636;28;19924;-80
2023/03/12 10:57:02;;;;;;;;;;;;;;;5.07;100.00;98696.31;5114622;28;19923;-80
2023/03/12 10:59:29;;;;;;;;;;;;;;;5.20;100.00;98691.31;5131843;27;19930;-79
2023/03/12 11:02:28;;;;;;;;;;;;;;;5.12;100.00;98702.91;5106606;27;20341;-79
2023/03/12 11:04:54;;;;;;;;;;;;;;;5.14;100.00;98703.56;5092310;28;19951;-80
2023/03/12 11:09:31;;;;;;;;;;;;;;;4.94;100.00;98700.28;5116761;27;20336;-80
2023/03/12 11:11:57;;;;;;;;;;;;;;;5.03;100.00;98700.31;5115140;28;20290;-80
2023/03/12 11:14:25;;;;;;;;;;;;;;;5.16;100.00;98697.19;5112515;27;20006;-80
2023/03/12 11:16:52;;;;;;;;;;;;;;;5.29;100.00;98698.41;5106998;28;19932;-80
2023/03/12 11:19:26;;;;;;;;;;;;;;;5.37;100.00;98696.75;5108933;28;19934;-80
2023/03/12 11:21:57;;;;;;;;;;;;;;;5.46;100.00;98693.91;5108755;28;19924;-80
2023/03/12 11:24:23;;;;;;;;;;;;;;;5.76;100.00;98697.03;5108295;28;19924;-81
2023/03/12 11:26:52;;;;;;;;;;;;;;;5.75;100.00;98694.50;5114715;28;19924;-80
2023/03/12 11:29:25;;;;;;;;;;;;;;;6.02;100.00;98690.69;5121161;28;20013;-80
2023/03/12 11:31:56;;;;;;;;;;;;;;;6.31;100.00;98690.22;5117174;27;19927;-81
2023/03/12 11:34:24;;;;;;;;;;;;;;;6.18;100.00;98684.47;5128254;27;19927;-80
2023/03/12 11:36:53;;;;;;;;;;;;;;;6.48;100.00;98680.22;5127695;27;20345;-80
2023/03/12 11:39:26;;;;;;;;;;;;;;;6.78;100.00;98687.81;5115450;28;19938;-80
2023/03/12 11:42:00;;;;;;;;;;;;;;;6.89;100.00;98692.81;5122934;27;19939;-81
2023/03/12 11:44:31;;;;;;;;;;;;;;;6.95;100.00;98694.00;5123101;28;19924;-80
2023/03/12 11:52:15;;;;;;;;;;;;;;;7.63;100.00;98681.69;5161469;27;19976;-80
2023/03/12 11:54:54;;;;;;;;;;;;;;;7.71;100.00;98691.66;5171220;27;20164;-81
2023/03/12 11:57:27;;;;;;;;;;;;;;;7.46;100.00;98683.66;5167054;27;19934;-81
2023/03/12 12:00:03;;;;;;;;;;;;;;;7.46;100.00;98686.38;5165192;27;19923;-80
2023/03/12 12:02:44;;;;;;;;;;;;;;;7.29;100.00;98691.00;5161414;27;19927;-80
2023/03/12 12:05:20;;;;;;;;;;;;;;;7.35;100.00;98690.31;5161263;27;20022;-80
2023/03/12 12:07:52;;;;;;;;;;;;;;;7.32;100.00;98689.81;5159720;27;20353;-80
2023/03/12 12:10:24;;;;;;;;;;;;;;;7.43;100.00;98686.72;5166735;27;19938;-80
2023/03/12 12:12:56;;;;;;;;;;;;;;;7.59;100.00;98672.28;5164252;27;19929;-80
2023/03/12 12:15:27;;;;;;;;;;;;;;;7.79;100.00;98665.38;5170013;27;20285;-80
2023/03/12 12:17:59;;;;;;;;;;;;;;;7.97;100.00;98659.66;5170379;27;19923;-80
2023/03/12 12:20:31;;;;;;;;;;;;;;;8.50;100.00;98658.91;5164923;27;19931;-80
2023/03/12 12:23:09;;;;;;;;;;;;;;;8.52;100.00;98664.16;5161600;27;20285;-80
2023/03/12 12:25:56;;;;;;;;;;;;;;;8.64;100.00;98652.69;5158506;27;19923;-80
2023/03/12 12:28:33;;;;;;;;;;;;;;;8.45;100.00;98650.50;5147245;27;19984;-80
2023/03/12 12:31:04;;;;;;;;;;;;;;;8.35;100.00;98645.31;5149643;27;19923;-80
2023/03/12 12:33:36;;;;;;;;;;;;;;;8.42;100.00;98645.44;5148592;27;19932;-80
2023/03/12 12:36:04;;;;;;;;;;;;;;;8.46;100.00;98638.63;5154292;27;19930;-80
2023/03/12 12:38:35;;;;;;;;;;;;;;;8.45;100.00;98631.56;5160664;27;19979;-80
2023/03/12 12:41:03;;;;;;;;;;;;;;;8.50;100.00;98629.13;5157346;27;19927;-80
2023/03/12 12:43:32;;;;;;;;;;;;;;;8.58;100.00;98626.34;5165918;27;20385;-80
2023/03/12 12:46:01;;;;;;;;;;;;;;;8.70;100.00;98625.88;5159004;27;19950;-80
2023/03/12 12:48:30;;;;;;;;;;;;;;;8.93;100.00;98617.66;5149994;27;19923;-80
2023/03/12 12:50:58;;;;;;;;;;;;;;;9.28;100.00;98616.00;5148645;27;19958;-81
2023/03/12 12:53:26;;;;;;;;;;;;;;;9.57;100.00;98617.84;5160162;27;20356;-80
2023/03/12 12:56:01;;;;;;;;;;;;;;;9.54;100.00;98612.78;5159424;27;20046;-81
2023/03/12 12:58:37;;;;;;;;;;;;;;;9.56;100.00;98612.59;5156528;27;19930;-81
2023/03/12 13:03:04;;;;;;;;;;;;;;;9.77;100.00;98619.06;5107545;27;19993;-80
2023/03/12 13:05:40;;;;;;;;;;;;;;;10.06;100.00;98608.06;5108109;28;19931;-81
2023/03/12 13:08:07;;;;;;;;;;;;;;;10.23;100.00;98605.06;5107939;28;19947;-81
2023/03/12 13:10:40;;;;;;;;;;;;;;;10.05;100.00;98614.53;5106864;28;19985;-80
2023/03/12 13:17:34;;;;;;;;;;;;;;;9.90;100.00;98613.75;5106123;27;20327;-80
2023/03/12 13:20:11;;;;;;;;;;;;;;;9.88;100.00;98613.13;5088171;28;19924;-81
2023/03/12 13:22:45;;;;;;;;;;;;;;;9.87;100.00;98619.59;5093915;28;19928;-81
2023/03/12 13:25:18;;;;;;;;;;;;;;;9.85;100.00;98614.34;5107807;28;19932;-80
2023/03/12 13:27:45;;;;;;;;;;;;;;;9.95;100.00;98614.03;5108300;28;19935;-81
2023/03/12 13:30:42;;;;;;;;;;;;;;;10.04;100.00;98622.88;5107948;28;20322;-81
2023/03/12 13:33:14;;;;;;;;;;;;;;;10.02;100.00;98624.94;5059845;28;19925;-81
2023/03/12 13:35:41;;;;;;;;;;;;;;;9.98;100.00;98620.94;5098428;28;19946;-81
2023/03/12 13:40:59;;;;;;;;;;;;;;;9.90;100.00;98611.03;5099838;27;20123;-81
2023/03/12 13:43:40;;;;;;;;;;;;;;;9.86;100.00;98607.88;5087085;28;20026;-81
2023/03/12 13:46:09;;;;;;;;;;;;;;;10.02;100.00;98603.22;5087863;28;20379;-81
2023/03/12 13:48:36;;;;;;;;;;;;;;;10.03;100.00;98605.75;5106500;28;20379;-81
2023/03/12 13:51:10;;;;;;;;;;;;;;;10.06;100.00;98601.81;5106878;28;19924;-81
2023/03/12 13:53:39;;;;;;;;;;;;;;;10.14;100.00;98608.97;5097663;28;19924;-83
2023/03/12 13:56:08;;;;;;;;;;;;;;;10.06;100.00;98608.06;5107133;28;20267;-80
2023/03/12 14:17:00;;;;;;;;;;;;;;;10.03;100.00;98616.59;5104320;28;19934;-81
2023/03/12 14:19:28;;;;;;;;;;;;;;;9.95;100.00;98619.47;5101812;28;19928;-80
2023/03/12 14:21:56;;;;;;;;;;;;;;;9.96;100.00;98626.56;5095804;28;19928;-81
2023/03/12 14:24:24;;;;;;;;;;;;;;;9.98;100.00;98624.50;5102488;28;19928;-81
2023/03/12 14:29:57;;;;;;;;;;;;;;;10.25;100.00;98628.31;5091777;27;19920;-81
2023/03/12 14:32:27;;;;;;;;;;;;;;;10.28;100.00;98632.47;5081368;28;19928;-81
2023/03/12 15:05:33;;;;;;;;;;;;;;;;;;;;;
2023/03/12 15:11:07;;;;;;;;;;;;;;;11.27;85.08;98628.75;5108273;27;19945;-82
2023/03/12 15:16:24;;;;;;;;;;;;;;;11.22;85.74;98614.94;5129148;27;19911;-82
2023/03/12 15:18:51;;;;;;;;;;;;;;;11.18;85.59;98616.38;5129528;27;19923;-82
2023/03/12 15:21:18;;;;;;;;;;;;;;;11.31;83.76;98627.31;5128243;27;19930;-82
2023/03/12 15:25:36;;;;;;;;;;;;;;;11.39;85.30;98614.59;5108983;27;20375;-82
2023/03/12 15:28:04;;;;;;;;;;;;;;;11.08;85.34;98605.88;5107242;28;20386;-82
2023/03/12 15:30:31;;;;;;;;;;;;;;;10.90;86.34;98616.44;5106591;28;19928;-82
2023/03/12 15:36:01;;;;;;;;;;;;;;;10.71;86.81;98621.56;5088402;27;19916;-82
2023/03/12 15:38:27;;;;;;;;;;;;;;;10.60;87.04;98628.38;5088724;28;19924;-82
2023/03/12 15:40:55;;;;;;;;;;;;;;;10.57;88.35;98620.63;5085342;28;20322;-82
2023/03/12 15:43:23;;;;;;;;;;;;;;;10.55;87.65;98610.97;5087386;28;19931;-82
2023/03/12 15:45:56;;;;;;;;;;;;;;;10.52;88.69;98620.38;5088290;28;19928;-82
2023/03/12 15:48:26;;;;;;;;;;;;;;;10.62;87.65;98611.88;5087412;28;19972;-82
2023/03/12 15:50:52;;;;;;;;;;;;;;;10.51;89.23;98618.72;5088226;28;19947;-82
2023/03/12 15:55:22;;;;;;;;;;;;;;;10.57;88.27;98630.66;5109142;27;20363;-82
2023/03/12 15:57:49;;;;;;;;;;;;;;;10.54;86.75;98628.34;5108659;28;19924;-83
2023/03/12 16:00:17;;;;;;;;;;;;;;;10.55;85.59;98630.88;5109097;28;19928;-82
2023/03/12 16:02:47;;;;;;;;;;;;;;;10.51;85.22;98632.28;5104352;28;19931;-82
2023/03/12 16:05:14;;;;;;;;;;;;;;;10.46;85.74;98618.44;5108794;28;19934;-82
2023/03/12 16:07:40;;;;;;;;;;;;;;;10.39;86.17;98617.56;5107948;28;20487;-82
2023/03/12 16:10:07;;;;;;;;;;;;;;;10.53;86.41;98616.63;5108657;28;19924;-82
2023/03/12 16:12:36;;;;;;;;;;;;;;;10.47;85.08;98616.59;5108129;28;19935;-82
2023/03/12 16:30:22;;;;;;;;;;;;;;;10.30;87.31;98605.13;5097144;28;19970;-82
2023/03/12 16:45:00;;;;;;;;;;;;;;;10.20;88.36;98611.72;5099211;28;20014;-82
2023/03/12 16:47:29;;;;;;;;;;;;;;;10.21;88.82;98624.28;5108987;28;20043;-82
2023/03/12 16:49:56;;;;;;;;;;;;;;;10.08;88.09;98625.00;5105895;28;19928;-82
2023/03/12 16:54:25;;;;;;;;;;;;;;;10.08;88.04;98608.69;5136755;27;19915;-82
2023/03/12 16:56:52;;;;;;;;;;;;;;;10.09;89.83;98615.00;5142229;27;19927;-82
2023/03/12 16:59:23;;;;;;;;;;;;;;;10.04;90.15;98610.16;5149427;27;20458;-82
2023/03/12 17:01:50;;;;;;;;;;;;;;;10.03;90.78;98613.06;5149031;27;20394;-82
2023/03/12 17:04:16;;;;;;;;;;;;;;;9.93;90.80;98616.09;5147339;27;19923;-82
2023/03/12 17:06:43;;;;;;;;;;;;;;;9.97;90.25;98613.84;5140643;27;19930;-82
2023/03/12 17:09:09;;;;;;;;;;;;;;;9.90;90.41;98609.16;5149823;27;19935;-82
2023/03/12 17:11:37;;;;;;;;;;;;;;;9.89;90.55;98614.78;5149794;27;19923;-82
2023/03/12 17:14:11;;;;;;;;;;;;;;;9.75;92.13;98608.38;5149101;27;19923;-82
2023/03/12 17:16:37;;;;;;;;;;;;;;;9.78;92.06;98607.16;5149651;27;19923;-82
2023/03/12 17:19:04;;;;;;;;;;;;;;;9.79;93.39;98606.97;5148298;27;19929;-82
2023/03/12 17:21:30;;;;;;;;;;;;;;;9.83;91.98;98616.41;5149459;27;20386;-82
2023/03/12 17:23:56;;;;;;;;;;;;;;;9.74;92.05;98618.41;5143168;27;19929;-82
2023/03/12 17:26:23;;;;;;;;;;;;;;;9.86;92.74;98626.91;5149602;27;19972;-82
2023/03/12 17:28:50;;;;;;;;;;;;;;;9.70;93.02;98624.44;5149562;27;19927;-82
2023/03/12 17:31:17;;;;;;;;;;;;;;;9.65;94.31;98622.28;5148543;27;19932;-82
2023/03/12 17:33:44;;;;;;;;;;;;;;;9.60;93.22;98632.03;5148455;27;19923;-83
2023/03/12 17:36:10;;;;;;;;;;;;;;;9.59;94.18;98633.06;5149295;27;19924;-82
2023/03/12 17:38:37;;;;;;;;;;;;;;;9.45;94.64;98629.34;5149232;27;19924;-82
2023/03/12 17:41:04;;;;;;;;;;;;;;;9.57;94.34;98625.09;5144240;27;19924;-82
2023/03/12 17:43:33;;;;;;;;;;;;;;;9.55;94.64;98625.31;5148582;27;19934;-82
2023/03/12 17:46:55;;;;;;;;;;;;;;;9.50;93.17;98626.91;5105584;27;19942;-82
2023/03/12 17:49:21;;;;;;;;;;;;;;;9.51;92.64;98629.41;5108992;28;19946;-82
2023/03/12 17:51:48;;;;;;;;;;;;;;;9.48;91.99;98635.22;5108664;28;19928;-82
2023/03/12 17:54:14;;;;;;;;;;;;;;;9.38;92.28;98646.41;5108242;28;19928;-82
2023/03/12 17:56:40;;;;;;;;;;;;;;;9.36;92.51;98645.75;5107659;28;20343;-82
2023/03/12 17:59:07;;;;;;;;;;;;;;;9.23;93.55;98645.59;5107797;28;19924;-82
2023/03/12 18:01:33;;;;;;;;;;;;;;;9.20;93.38;98649.50;5104423;28;19924;-82
2023/03/12 18:04:01;;;;;;;;;;;;;;;9.16;93.25;98655.50;5104155;28;19928;-82
2023/03/12 18:06:27;;;;;;;;;;;;;;;9.18;92.35;98645.28;5108545;28;19931;-82
2023/03/12 18:08:53;;;;;;;;;;;;;;;9.19;92.30;98655.13;5088118;28;19924;-82
2023/03/12 18:14:07;;;;;;;;;;;;;;;9.34;91.85;98649.69;5123983;27;19916;-81
2023/03/12 18:16:34;;;;;;;;;;;;;;;9.24;91.00;98659.97;5127403;28;19971;-81
2023/03/12 18:19:00;;;;;;;;;;;;;;;9.28;92.07;98659.41;5129578;28;19931;-82
2023/03/12 18:21:27;;;;;;;;;;;;;;;9.24;91.75;98654.56;5129907;28;19923;-81
2023/03/12 18:23:53;;;;;;;;;;;;;;;9.20;91.85;98656.81;5128256;28;19949;-81
2023/03/12 18:26:19;;;;;;;;;;;;;;;9.23;91.76;98661.00;5129460;28;19924;-81
2023/03/12 18:28:46;;;;;;;;;;;;;;;9.25;91.85;98656.25;5129252;28;19931;-84
2023/03/12 18:31:13;;;;;;;;;;;;;;;9.21;90.90;98667.47;5126639;28;19950;-81
2023/03/12 18:33:40;;;;;;;;;;;;;;;9.27;91.04;98667.75;5121561;28;19930;-81
2023/03/12 18:41:42;;;;;;;;;;;;;;;9.17;90.73;98678.91;5108739;27;19946;-82
